sensor_id;sensor_type;location;lat;lon;timestamp;temperature;humidity
3334;DHT22;1679;50.392;8.008;2023-08-08T00:01:02;13.30;99.90
3334;DHT22;1679;50.392;8.008;2023-08-08T00:03:28;13.30;99.90
3334;DHT22;1679;50.392;8.008;2023-08-08T00:05:53;13.40;99.90
3334;DHT22;1679;50.392;8.008;2023-08-08T00:08:19;13.40;99.90
3334;DHT22;1679;50.392;8.008;2023-08-08T00:10:44;13.40;99.90
3334;DHT22;1679;50.392;8.008;2023-08-08T00:13:10;13.30;99.90
3334;DHT22;1679;50.392;8.008;2023-08-08T00:15:36;13.30;99.90
3334;DHT22;1679;50.392;8.008;2023-08-08T00:18:02;13.20;99.90
3334;DHT22;1679;50.392;8.008;2023-08-08T00:20:28;13.10;99.90
3334;DHT22;1679;50.392;8.008;2023-08-08T00:22:53;13.00;99.90
3334;DHT22;1679;50.392;8.008;2023-08-08T00:25:19;13.00;99.90
3334;DHT22;1679;50.392;8.008;2023-08-08T00:27:45;12.90;99.90
3334;DHT22;1679;50.392;8.008;2023-08-08T00:30:12;12.90;99.90
3334;DHT22;1679;50.392;8.008;2023-08-08T00:32:40;12.80;99.90
3334;DHT22;1679;50.392;8.008;2023-08-08T00:35:06;12.70;99.90
3334;DHT22;1679;50.392;8.008;2023-08-08T00:37:31;12.60;99.90
3334;DHT22;1679;50.392;8.008;2023-08-08T00:39:57;12.60;99.90
3334;DHT22;1679;50.392;8.008;2023-08-08T00:42:23;12.50;99.90
3334;DHT22;1679;50.392;8.008;2023-08-08T00:44:48;12.50;99.90
3334;DHT22;1679;50.392;8.008;2023-08-08T00:47:14;12.40;99.90
3334;DHT22;1679;50.392;8.008;2023-08-08T00:49:40;12.40;99.90
3334;DHT22;1679;50.392;8.008;2023-08-08T00:52:06;12.30;99.90
3334;DHT22;1679;50.392;8.008;2023-08-08T00:54:32;12.30;99.90
3334;DHT22;1679;50.392;8.008;2023-08-08T00:56:58;12.30;99.90
3334;DHT22;1679;50.392;8.008;2023-08-08T00:59:23;12.30;99.90
3334;DHT22;1679;50.392;8.008;2023-08-08T01:01:49;12.30;99.90
3334;DHT22;1679;50.392;8.008;2023-08-08T01:04:15;12.20;99.90
3334;DHT22;1679;50.392;8.008;2023-08-08T01:07:10;12.20;99.90
3334;DHT22;1679;50.392;8.008;2023-08-08T01:09:41;12.20;99.90
3334;DHT22;1679;50.392;8.008;2023-08-08T01:12:08;12.20;99.90
3334;DHT22;1679;50.392;8.008;2023-08-08T01:14:37;12.10;99.90
3334;DHT22;1679;50.392;8.008;2023-08-08T01:17:04;12.10;99.90
3334;DHT22;1679;50.392;8.008;2023-08-08T01:19:31;12.00;99.90
3334;DHT22;1679;50.392;8.008;2023-08-08T01:22:01;11.90;99.90
3334;DHT22;1679;50.392;8.008;2023-08-08T01:24:31;11.90;99.90
3334;DHT22;1679;50.392;8.008;2023-08-08T01:27:01;11.90;99.90
3334;DHT22;1679;50.392;8.008;2023-08-08T01:29:27;11.80;99.90
3334;DHT22;1679;50.392;8.008;2023-08-08T01:31:53;11.80;99.90
3334;DHT22;1679;50.392;8.008;2023-08-08T01:34:18;11.80;99.90
3334;DHT22;1679;50.392;8.008;2023-08-08T01:36:49;11.70;99.90
3334;DHT22;1679;50.392;8.008;2023-08-08T01:39:22;11.70;99.90
3334;DHT22;1679;50.392;8.008;2023-08-08T01:41:50;11.70;99.90
3334;DHT22;1679;50.392;8.008;2023-08-08T01:44:18;11.70;99.90
3334;DHT22;1679;50.392;8.008;2023-08-08T01:46:43;11.70;99.90
3334;DHT22;1679;50.392;8.008;2023-08-08T01:49:10;11.60;99.90
3334;DHT22;1679;50.392;8.008;2023-08-08T01:51:36;11.60;99.90
3334;DHT22;1679;50.392;8.008;2023-08-08T01:54:01;11.60;99.90
3334;DHT22;1679;50.392;8.008;2023-08-08T01:56:28;11.50;99.90
3334;DHT22;1679;50.392;8.008;2023-08-08T01:58:54;11.50;99.90
3334;DHT22;1679;50.392;8.008;2023-08-08T02:01:19;11.50;99.90
3334;DHT22;1679;50.392;8.008;2023-08-08T02:03:45;11.50;99.90
3334;DHT22;1679;50.392;8.008;2023-08-08T02:06:10;11.50;99.90
3334;DHT22;1679;50.392;8.008;2023-08-08T02:08:36;11.50;99.90
3334;DHT22;1679;50.392;8.008;2023-08-08T02:11:01;11.50;99.90
3334;DHT22;1679;50.392;8.008;2023-08-08T02:13:27;11.60;99.90
3334;DHT22;1679;50.392;8.008;2023-08-08T02:15:52;11.50;99.90
3334;DHT22;1679;50.392;8.008;2023-08-08T02:18:19;11.50;99.90
3334;DHT22;1679;50.392;8.008;2023-08-08T02:20:45;11.50;99.90
3334;DHT22;1679;50.392;8.008;2023-08-08T02:23:10;11.50;99.90
3334;DHT22;1679;50.392;8.008;2023-08-08T02:25:36;11.40;99.90
3334;DHT22;1679;50.392;8.008;2023-08-08T02:28:01;11.50;99.90
3334;DHT22;1679;50.392;8.008;2023-08-08T02:30:27;11.50;99.90
3334;DHT22;1679;50.392;8.008;2023-08-08T02:32:52;11.50;99.90
3334;DHT22;1679;50.392;8.008;2023-08-08T02:35:18;11.50;99.90
3334;DHT22;1679;50.392;8.008;2023-08-08T02:37:43;11.50;99.90
3334;DHT22;1679;50.392;8.008;2023-08-08T02:40:09;11.60;99.90
3334;DHT22;1679;50.392;8.008;2023-08-08T02:42:35;11.60;99.90
3334;DHT22;1679;50.392;8.008;2023-08-08T02:45:01;11.70;99.90
3334;DHT22;1679;50.392;8.008;2023-08-08T02:47:26;11.70;99.90
3334;DHT22;1679;50.392;8.008;2023-08-08T02:49:52;11.60;99.90
3334;DHT22;1679;50.392;8.008;2023-08-08T02:52:17;11.50;99.90
3334;DHT22;1679;50.392;8.008;2023-08-08T02:54:44;11.40;99.90
3334;DHT22;1679;50.392;8.008;2023-08-08T02:57:09;11.30;99.90
3334;DHT22;1679;50.392;8.008;2023-08-08T02:59:37;11.20;99.90
3334;DHT22;1679;50.392;8.008;2023-08-08T03:02:04;11.20;99.90
3334;DHT22;1679;50.392;8.008;2023-08-08T03:04:30;11.20;99.90
3334;DHT22;1679;50.392;8.008;2023-08-08T03:06:55;11.10;99.90
3334;DHT22;1679;50.392;8.008;2023-08-08T03:09:21;11.10;99.90
3334;DHT22;1679;50.392;8.008;2023-08-08T03:11:47;11.10;99.90
3334;DHT22;1679;50.392;8.008;2023-08-08T03:14:12;11.20;99.90
3334;DHT22;1679;50.392;8.008;2023-08-08T03:16:38;11.10;99.90
3334;DHT22;1679;50.392;8.008;2023-08-08T03:19:04;11.10;99.90
3334;DHT22;1679;50.392;8.008;2023-08-08T03:21:29;11.10;99.90
3334;DHT22;1679;50.392;8.008;2023-08-08T03:23:56;11.10;99.90
3334;DHT22;1679;50.392;8.008;2023-08-08T03:26:22;11.10;99.90
3334;DHT22;1679;50.392;8.008;2023-08-08T03:28:48;11.10;99.90
3334;DHT22;1679;50.392;8.008;2023-08-08T03:31:17;11.00;99.90
3334;DHT22;1679;50.392;8.008;2023-08-08T03:33:43;11.00;99.90
3334;DHT22;1679;50.392;8.008;2023-08-08T03:36:09;10.90;99.90
3334;DHT22;1679;50.392;8.008;2023-08-08T03:38:34;10.90;99.90
3334;DHT22;1679;50.392;8.008;2023-08-08T03:41:00;10.80;99.90
3334;DHT22;1679;50.392;8.008;2023-08-08T03:43:26;10.80;99.90
3334;DHT22;1679;50.392;8.008;2023-08-08T03:45:51;10.70;99.90
3334;DHT22;1679;50.392;8.008;2023-08-08T03:48:17;10.60;99.90
3334;DHT22;1679;50.392;8.008;2023-08-08T03:50:42;10.60;99.90
3334;DHT22;1679;50.392;8.008;2023-08-08T03:53:08;10.60;99.90
3334;DHT22;1679;50.392;8.008;2023-08-08T03:55:33;10.60;99.90
3334;DHT22;1679;50.392;8.008;2023-08-08T03:57:59;10.60;99.90
3334;DHT22;1679;50.392;8.008;2023-08-08T04:00:24;10.60;99.90
3334;DHT22;1679;50.392;8.008;2023-08-08T04:02:50;10.60;99.90
3334;DHT22;1679;50.392;8.008;2023-08-08T04:05:15;10.60;99.90
3334;DHT22;1679;50.392;8.008;2023-08-08T04:07:41;10.60;99.90
3334;DHT22;1679;50.392;8.008;2023-08-08T04:10:07;10.50;99.90
3334;DHT22;1679;50.392;8.008;2023-08-08T04:12:33;10.50;99.90
3334;DHT22;1679;50.392;8.008;2023-08-08T04:14:59;10.50;99.90
3334;DHT22;1679;50.392;8.008;2023-08-08T04:17:24;10.60;99.90
3334;DHT22;1679;50.392;8.008;2023-08-08T04:19:50;10.50;99.90
3334;DHT22;1679;50.392;8.008;2023-08-08T04:22:16;10.50;99.90
3334;DHT22;1679;50.392;8.008;2023-08-08T04:24:41;10.50;99.90
3334;DHT22;1679;50.392;8.008;2023-08-08T04:27:07;10.60;99.90
3334;DHT22;1679;50.392;8.008;2023-08-08T04:29:33;10.60;99.90
3334;DHT22;1679;50.392;8.008;2023-08-08T04:31:59;10.70;99.90
3334;DHT22;1679;50.392;8.008;2023-08-08T04:34:24;10.80;99.90
3334;DHT22;1679;50.392;8.008;2023-08-08T04:36:50;10.80;99.90
3334;DHT22;1679;50.392;8.008;2023-08-08T04:39:15;10.80;99.90
3334;DHT22;1679;50.392;8.008;2023-08-08T04:41:41;10.90;99.90
3334;DHT22;1679;50.392;8.008;2023-08-08T04:44:07;10.90;99.90
3334;DHT22;1679;50.392;8.008;2023-08-08T04:46:33;10.90;99.90
3334;DHT22;1679;50.392;8.008;2023-08-08T04:49:00;11.00;99.90
3334;DHT22;1679;50.392;8.008;2023-08-08T04:51:25;11.00;99.90
3334;DHT22;1679;50.392;8.008;2023-08-08T04:53:51;11.10;99.90
3334;DHT22;1679;50.392;8.008;2023-08-08T04:56:17;11.10;99.90
3334;DHT22;1679;50.392;8.008;2023-08-08T04:58:43;11.20;99.90
3334;DHT22;1679;50.392;8.008;2023-08-08T05:01:08;11.20;99.90
3334;DHT22;1679;50.392;8.008;2023-08-08T05:03:37;11.30;99.90
3334;DHT22;1679;50.392;8.008;2023-08-08T05:06:02;11.30;99.90
3334;DHT22;1679;50.392;8.008;2023-08-08T05:08:28;11.40;99.90
3334;DHT22;1679;50.392;8.008;2023-08-08T05:10:53;11.40;99.90
3334;DHT22;1679;50.392;8.008;2023-08-08T05:13:22;11.50;99.90
3334;DHT22;1679;50.392;8.008;2023-08-08T05:15:47;11.50;99.90
3334;DHT22;1679;50.392;8.008;2023-08-08T05:18:13;11.60;99.90
3334;DHT22;1679;50.392;8.008;2023-08-08T05:20:40;11.60;99.90
3334;DHT22;1679;50.392;8.008;2023-08-08T05:23:05;11.70;99.90
3334;DHT22;1679;50.392;8.008;2023-08-08T05:25:31;11.80;99.90
3334;DHT22;1679;50.392;8.008;2023-08-08T05:27:57;11.90;99.90
3334;DHT22;1679;50.392;8.008;2023-08-08T05:30:24;11.90;99.90
3334;DHT22;1679;50.392;8.008;2023-08-08T05:32:49;12.00;99.90
3334;DHT22;1679;50.392;8.008;2023-08-08T05:35:15;12.10;99.90
3334;DHT22;1679;50.392;8.008;2023-08-08T05:37:40;12.10;99.90
3334;DHT22;1679;50.392;8.008;2023-08-08T05:40:06;12.20;99.90
3334;DHT22;1679;50.392;8.008;2023-08-08T05:42:32;12.30;99.90
3334;DHT22;1679;50.392;8.008;2023-08-08T05:44:58;12.30;99.90
3334;DHT22;1679;50.392;8.008;2023-08-08T05:47:23;12.40;99.90
3334;DHT22;1679;50.392;8.008;2023-08-08T05:49:50;12.50;99.90
3334;DHT22;1679;50.392;8.008;2023-08-08T05:52:16;12.50;99.90
3334;DHT22;1679;50.392;8.008;2023-08-08T05:54:41;12.60;99.90
3334;DHT22;1679;50.392;8.008;2023-08-08T05:57:06;12.70;99.90
3334;DHT22;1679;50.392;8.008;2023-08-08T05:59:32;12.80;99.90
3334;DHT22;1679;50.392;8.008;2023-08-08T06:01:58;12.90;99.90
3334;DHT22;1679;50.392;8.008;2023-08-08T06:04:24;13.00;99.90
3334;DHT22;1679;50.392;8.008;2023-08-08T06:06:50;13.10;99.90
3334;DHT22;1679;50.392;8.008;2023-08-08T06:09:15;13.20;99.90
3334;DHT22;1679;50.392;8.008;2023-08-08T06:11:42;13.30;99.90
3334;DHT22;1679;50.392;8.008;2023-08-08T06:14:08;13.40;99.90
3334;DHT22;1679;50.392;8.008;2023-08-08T06:16:33;13.50;99.90
3334;DHT22;1679;50.392;8.008;2023-08-08T06:18:59;13.50;99.90
3334;DHT22;1679;50.392;8.008;2023-08-08T06:21:25;13.60;99.90
3334;DHT22;1679;50.392;8.008;2023-08-08T06:23:50;13.70;99.90
3334;DHT22;1679;50.392;8.008;2023-08-08T06:26:18;13.80;99.90
3334;DHT22;1679;50.392;8.008;2023-08-08T06:28:43;13.80;99.90
3334;DHT22;1679;50.392;8.008;2023-08-08T06:31:09;13.90;99.90
3334;DHT22;1679;50.392;8.008;2023-08-08T06:33:34;14.00;99.90
3334;DHT22;1679;50.392;8.008;2023-08-08T06:36:00;14.10;99.90
3334;DHT22;1679;50.392;8.008;2023-08-08T06:38:25;14.30;99.90
3334;DHT22;1679;50.392;8.008;2023-08-08T06:40:51;14.40;99.90
3334;DHT22;1679;50.392;8.008;2023-08-08T06:43:17;14.50;99.90
3334;DHT22;1679;50.392;8.008;2023-08-08T06:45:42;14.60;99.90
3334;DHT22;1679;50.392;8.008;2023-08-08T06:48:08;14.70;99.90
3334;DHT22;1679;50.392;8.008;2023-08-08T06:50:34;14.80;99.90
3334;DHT22;1679;50.392;8.008;2023-08-08T06:52:59;14.90;99.90
3334;DHT22;1679;50.392;8.008;2023-08-08T06:55:25;15.00;99.90
3334;DHT22;1679;50.392;8.008;2023-08-08T06:57:50;15.10;99.90
3334;DHT22;1679;50.392;8.008;2023-08-08T07:00:16;15.30;99.90
3334;DHT22;1679;50.392;8.008;2023-08-08T07:02:41;15.40;99.90
3334;DHT22;1679;50.392;8.008;2023-08-08T07:05:07;15.60;99.90
3334;DHT22;1679;50.392;8.008;2023-08-08T07:07:33;15.80;99.90
3334;DHT22;1679;50.392;8.008;2023-08-08T07:10:00;16.00;99.90
3334;DHT22;1679;50.392;8.008;2023-08-08T07:12:25;16.20;99.90
3334;DHT22;1679;50.392;8.008;2023-08-08T07:14:51;16.40;99.90
3334;DHT22;1679;50.392;8.008;2023-08-08T07:17:16;16.60;99.90
3334;DHT22;1679;50.392;8.008;2023-08-08T07:19:42;17.00;99.90
3334;DHT22;1679;50.392;8.008;2023-08-08T07:22:08;17.50;99.90
3334;DHT22;1679;50.392;8.008;2023-08-08T07:24:34;18.00;99.90
3334;DHT22;1679;50.392;8.008;2023-08-08T07:27:00;18.30;99.90
3334;DHT22;1679;50.392;8.008;2023-08-08T07:29:26;18.40;99.90
3334;DHT22;1679;50.392;8.008;2023-08-08T07:31:52;18.70;99.90
3334;DHT22;1679;50.392;8.008;2023-08-08T07:34:18;18.90;99.90
3334;DHT22;1679;50.392;8.008;2023-08-08T07:36:44;18.90;99.90
3334;DHT22;1679;50.392;8.008;2023-08-08T07:39:09;19.10;99.90
3334;DHT22;1679;50.392;8.008;2023-08-08T07:41:36;19.40;99.90
3334;DHT22;1679;50.392;8.008;2023-08-08T07:44:01;19.30;99.90
3334;DHT22;1679;50.392;8.008;2023-08-08T07:46:27;19.00;99.90
3334;DHT22;1679;50.392;8.008;2023-08-08T07:48:53;18.80;99.90
3334;DHT22;1679;50.392;8.008;2023-08-08T07:51:18;18.70;99.90
3334;DHT22;1679;50.392;8.008;2023-08-08T07:53:44;19.10;99.90
3334;DHT22;1679;50.392;8.008;2023-08-08T07:56:09;19.50;99.90
3334;DHT22;1679;50.392;8.008;2023-08-08T07:58:35;19.60;99.90
3334;DHT22;1679;50.392;8.008;2023-08-08T08:01:00;19.30;99.90
3334;DHT22;1679;50.392;8.008;2023-08-08T08:03:26;18.80;99.90
3334;DHT22;1679;50.392;8.008;2023-08-08T08:05:52;18.50;99.90
3334;DHT22;1679;50.392;8.008;2023-08-08T08:08:18;18.60;99.90
3334;DHT22;1679;50.392;8.008;2023-08-08T08:10:44;19.10;99.90
3334;DHT22;1679;50.392;8.008;2023-08-08T08:13:11;19.20;99.90
3334;DHT22;1679;50.392;8.008;2023-08-08T08:15:37;19.10;99.90
3334;DHT22;1679;50.392;8.008;2023-08-08T08:18:03;18.90;99.90
3334;DHT22;1679;50.392;8.008;2023-08-08T08:20:28;18.90;99.90
3334;DHT22;1679;50.392;8.008;2023-08-08T08:22:54;18.80;99.90
3334;DHT22;1679;50.392;8.008;2023-08-08T08:25:19;18.70;99.90
3334;DHT22;1679;50.392;8.008;2023-08-08T08:27:45;18.50;99.90
3334;DHT22;1679;50.392;8.008;2023-08-08T08:30:11;18.70;99.90
3334;DHT22;1679;50.392;8.008;2023-08-08T08:32:38;18.70;99.90
3334;DHT22;1679;50.392;8.008;2023-08-08T08:35:04;18.80;99.90
3334;DHT22;1679;50.392;8.008;2023-08-08T08:37:31;18.60;99.90
3334;DHT22;1679;50.392;8.008;2023-08-08T08:39:58;18.40;99.90
3334;DHT22;1679;50.392;8.008;2023-08-08T08:42:24;18.30;99.90
3334;DHT22;1679;50.392;8.008;2023-08-08T08:44:51;18.30;99.90
3334;DHT22;1679;50.392;8.008;2023-08-08T08:47:18;18.40;99.90
3334;DHT22;1679;50.392;8.008;2023-08-08T08:49:45;18.60;99.90
3334;DHT22;1679;50.392;8.008;2023-08-08T08:52:11;18.80;99.90
3334;DHT22;1679;50.392;8.008;2023-08-08T08:54:37;18.80;99.90
3334;DHT22;1679;50.392;8.008;2023-08-08T08:57:03;19.10;99.90
3334;DHT22;1679;50.392;8.008;2023-08-08T08:59:29;19.30;99.90
3334;DHT22;1679;50.392;8.008;2023-08-08T09:01:55;19.30;99.90
3334;DHT22;1679;50.392;8.008;2023-08-08T09:04:22;19.50;99.90
3334;DHT22;1679;50.392;8.008;2023-08-08T09:06:48;19.40;99.90
3334;DHT22;1679;50.392;8.008;2023-08-08T09:09:14;19.30;99.90
3334;DHT22;1679;50.392;8.008;2023-08-08T09:11:44;19.30;99.90
3334;DHT22;1679;50.392;8.008;2023-08-08T09:14:22;19.40;99.90
3334;DHT22;1679;50.392;8.008;2023-08-08T09:16:48;19.30;99.90
3334;DHT22;1679;50.392;8.008;2023-08-08T09:19:14;19.50;99.90
3334;DHT22;1679;50.392;8.008;2023-08-08T09:21:40;19.70;99.90
3334;DHT22;1679;50.392;8.008;2023-08-08T09:24:05;19.90;99.90
3334;DHT22;1679;50.392;8.008;2023-08-08T09:26:32;20.20;99.90
3334;DHT22;1679;50.392;8.008;2023-08-08T09:28:58;20.50;99.90
3334;DHT22;1679;50.392;8.008;2023-08-08T09:31:25;20.70;99.90
3334;DHT22;1679;50.392;8.008;2023-08-08T09:33:51;20.70;99.90
3334;DHT22;1679;50.392;8.008;2023-08-08T09:36:17;20.40;99.90
3334;DHT22;1679;50.392;8.008;2023-08-08T09:38:45;20.00;99.90
3334;DHT22;1679;50.392;8.008;2023-08-08T09:41:11;19.80;99.90
3334;DHT22;1679;50.392;8.008;2023-08-08T09:43:37;19.60;99.90
3334;DHT22;1679;50.392;8.008;2023-08-08T09:46:03;19.30;99.90
3334;DHT22;1679;50.392;8.008;2023-08-08T09:48:32;19.20;99.90
3334;DHT22;1679;50.392;8.008;2023-08-08T09:51:01;19.20;99.90
3334;DHT22;1679;50.392;8.008;2023-08-08T09:53:27;19.20;99.90
3334;DHT22;1679;50.392;8.008;2023-08-08T09:55:54;19.20;99.90
3334;DHT22;1679;50.392;8.008;2023-08-08T09:58:21;19.20;99.90
3334;DHT22;1679;50.392;8.008;2023-08-08T10:00:49;19.20;99.90
3334;DHT22;1679;50.392;8.008;2023-08-08T10:03:16;19.10;99.90
3334;DHT22;1679;50.392;8.008;2023-08-08T10:05:43;19.10;99.90
3334;DHT22;1679;50.392;8.008;2023-08-08T10:08:09;19.30;99.90
3334;DHT22;1679;50.392;8.008;2023-08-08T10:10:35;19.30;99.90
3334;DHT22;1679;50.392;8.008;2023-08-08T10:13:02;19.30;99.90
3334;DHT22;1679;50.392;8.008;2023-08-08T10:15:28;19.20;99.90
3334;DHT22;1679;50.392;8.008;2023-08-08T10:17:56;19.20;99.90
3334;DHT22;1679;50.392;8.008;2023-08-08T10:20:24;19.20;99.90
3334;DHT22;1679;50.392;8.008;2023-08-08T10:22:52;19.10;99.90
3334;DHT22;1679;50.392;8.008;2023-08-08T10:25:27;19.10;99.90
3334;DHT22;1679;50.392;8.008;2023-08-08T10:28:10;19.30;99.90
3334;DHT22;1679;50.392;8.008;2023-08-08T10:31:02;19.30;99.90
3334;DHT22;1679;50.392;8.008;2023-08-08T10:33:39;19.50;99.90
3334;DHT22;1679;50.392;8.008;2023-08-08T10:36:06;19.50;99.90
3334;DHT22;1679;50.392;8.008;2023-08-08T10:38:45;19.60;99.90
3334;DHT22;1679;50.392;8.008;2023-08-08T10:41:16;19.70;99.90
3334;DHT22;1679;50.392;8.008;2023-08-08T10:43:51;19.50;99.90
3334;DHT22;1679;50.392;8.008;2023-08-08T10:46:32;19.30;99.90
3334;DHT22;1679;50.392;8.008;2023-08-08T10:49:05;19.30;99.90
3334;DHT22;1679;50.392;8.008;2023-08-08T10:51:42;19.40;99.90
3334;DHT22;1679;50.392;8.008;2023-08-08T10:54:13;19.60;99.90
3334;DHT22;1679;50.392;8.008;2023-08-08T10:56:41;19.60;99.90
3334;DHT22;1679;50.392;8.008;2023-08-08T10:59:17;19.60;99.90
3334;DHT22;1679;50.392;8.008;2023-08-08T11:01:45;19.70;99.90
3334;DHT22;1679;50.392;8.008;2023-08-08T11:04:12;19.70;99.90
3334;DHT22;1679;50.392;8.008;2023-08-08T11:06:38;19.60;99.90
3334;DHT22;1679;50.392;8.008;2023-08-08T11:09:08;19.70;99.90
3334;DHT22;1679;50.392;8.008;2023-08-08T11:11:38;19.80;99.90
3334;DHT22;1679;50.392;8.008;2023-08-08T11:14:17;19.80;99.90
3334;DHT22;1679;50.392;8.008;2023-08-08T11:16:45;19.90;99.90
3334;DHT22;1679;50.392;8.008;2023-08-08T11:19:11;19.90;99.90
3334;DHT22;1679;50.392;8.008;2023-08-08T11:21:43;20.00;99.90
3334;DHT22;1679;50.392;8.008;2023-08-08T11:24:09;20.10;99.90
3334;DHT22;1679;50.392;8.008;2023-08-08T11:26:36;20.10;99.90
3334;DHT22;1679;50.392;8.008;2023-08-08T11:29:04;20.30;99.90
3334;DHT22;1679;50.392;8.008;2023-08-08T11:31:31;20.30;99.90
3334;DHT22;1679;50.392;8.008;2023-08-08T11:33:58;20.50;99.90
3334;DHT22;1679;50.392;8.008;2023-08-08T11:36:31;20.50;99.90
3334;DHT22;1679;50.392;8.008;2023-08-08T11:38:59;20.60;99.90
3334;DHT22;1679;50.392;8.008;2023-08-08T11:41:25;20.90;99.90
3334;DHT22;1679;50.392;8.008;2023-08-08T11:43:51;21.20;99.90
3334;DHT22;1679;50.392;8.008;2023-08-08T11:46:22;20.90;99.90
3334;DHT22;1679;50.392;8.008;2023-08-08T11:48:48;20.60;99.90
3334;DHT22;1679;50.392;8.008;2023-08-08T11:51:15;20.30;99.90
3334;DHT22;1679;50.392;8.008;2023-08-08T11:53:51;19.80;99.90
3334;DHT22;1679;50.392;8.008;2023-08-08T11:56:20;19.50;99.90
3334;DHT22;1679;50.392;8.008;2023-08-08T11:58:49;19.20;99.90
3334;DHT22;1679;50.392;8.008;2023-08-08T12:01:14;19.10;99.90
3334;DHT22;1679;50.392;8.008;2023-08-08T12:03:40;19.10;99.90
3334;DHT22;1679;50.392;8.008;2023-08-08T12:06:15;19.20;99.90
3334;DHT22;1679;50.392;8.008;2023-08-08T12:08:45;19.40;99.90
3334;DHT22;1679;50.392;8.008;2023-08-08T12:11:12;19.50;99.90
3334;DHT22;1679;50.392;8.008;2023-08-08T12:13:42;19.30;99.90
3334;DHT22;1679;50.392;8.008;2023-08-08T12:16:09;19.20;99.90
3334;DHT22;1679;50.392;8.008;2023-08-08T12:18:35;19.00;99.90
3334;DHT22;1679;50.392;8.008;2023-08-08T12:21:01;18.90;99.90
3334;DHT22;1679;50.392;8.008;2023-08-08T12:23:27;18.80;99.90
3334;DHT22;1679;50.392;8.008;2023-08-08T12:25:53;18.70;99.90
3334;DHT22;1679;50.392;8.008;2023-08-08T12:28:18;18.60;99.90
3334;DHT22;1679;50.392;8.008;2023-08-08T12:30:44;18.50;99.90
3334;DHT22;1679;50.392;8.008;2023-08-08T12:33:10;18.50;99.90
3334;DHT22;1679;50.392;8.008;2023-08-08T12:35:35;18.40;99.90
3334;DHT22;1679;50.392;8.008;2023-08-08T12:38:01;18.50;99.90
3334;DHT22;1679;50.392;8.008;2023-08-08T12:40:28;18.70;99.90
3334;DHT22;1679;50.392;8.008;2023-08-08T12:42:54;18.80;99.90
3334;DHT22;1679;50.392;8.008;2023-08-08T12:45:20;18.80;99.90
3334;DHT22;1679;50.392;8.008;2023-08-08T12:47:45;18.80;99.90
3334;DHT22;1679;50.392;8.008;2023-08-08T12:50:11;18.90;99.90
3334;DHT22;1679;50.392;8.008;2023-08-08T12:52:36;18.90;99.90
3334;DHT22;1679;50.392;8.008;2023-08-08T12:55:03;18.90;99.90
3334;DHT22;1679;50.392;8.008;2023-08-08T12:57:30;18.90;99.90
3334;DHT22;1679;50.392;8.008;2023-08-08T12:59:56;19.00;99.90
3334;DHT22;1679;50.392;8.008;2023-08-08T13:02:21;19.00;99.90
3334;DHT22;1679;50.392;8.008;2023-08-08T13:04:47;19.00;99.90
3334;DHT22;1679;50.392;8.008;2023-08-08T13:07:12;18.90;99.90
3334;DHT22;1679;50.392;8.008;2023-08-08T13:09:38;18.80;99.90
3334;DHT22;1679;50.392;8.008;2023-08-08T13:12:04;18.80;99.90
3334;DHT22;1679;50.392;8.008;2023-08-08T13:14:30;18.70;99.90
3334;DHT22;1679;50.392;8.008;2023-08-08T13:16:56;18.60;99.90
3334;DHT22;1679;50.392;8.008;2023-08-08T13:19:21;18.50;99.90
3334;DHT22;1679;50.392;8.008;2023-08-08T13:21:50;18.50;99.90
3334;DHT22;1679;50.392;8.008;2023-08-08T13:24:16;18.50;99.90
3334;DHT22;1679;50.392;8.008;2023-08-08T13:26:42;18.40;99.90
3334;DHT22;1679;50.392;8.008;2023-08-08T13:29:07;18.40;99.90
3334;DHT22;1679;50.392;8.008;2023-08-08T13:31:33;18.30;99.90
3334;DHT22;1679;50.392;8.008;2023-08-08T13:33:59;18.10;99.90
3334;DHT22;1679;50.392;8.008;2023-08-08T13:36:25;18.10;99.90
3334;DHT22;1679;50.392;8.008;2023-08-08T13:38:50;18.10;99.90
3334;DHT22;1679;50.392;8.008;2023-08-08T13:41:16;18.10;99.90
3334;DHT22;1679;50.392;8.008;2023-08-08T13:43:41;18.20;99.90
3334;DHT22;1679;50.392;8.008;2023-08-08T13:46:07;18.40;99.90
3334;DHT22;1679;50.392;8.008;2023-08-08T13:48:35;18.70;99.90
3334;DHT22;1679;50.392;8.008;2023-08-08T13:51:01;18.80;99.90
3334;DHT22;1679;50.392;8.008;2023-08-08T13:53:27;19.10;99.90
3334;DHT22;1679;50.392;8.008;2023-08-08T13:55:53;19.30;99.90
3334;DHT22;1679;50.392;8.008;2023-08-08T13:58:19;19.50;99.90
3334;DHT22;1679;50.392;8.008;2023-08-08T14:00:48;19.70;99.90
3334;DHT22;1679;50.392;8.008;2023-08-08T14:03:14;20.00;99.90
3334;DHT22;1679;50.392;8.008;2023-08-08T14:05:39;20.00;99.90
3334;DHT22;1679;50.392;8.008;2023-08-08T14:08:05;19.70;99.90
3334;DHT22;1679;50.392;8.008;2023-08-08T14:10:31;19.50;99.90
3334;DHT22;1679;50.392;8.008;2023-08-08T14:12:59;19.20;99.90
3334;DHT22;1679;50.392;8.008;2023-08-08T14:15:24;19.00;99.90
3334;DHT22;1679;50.392;8.008;2023-08-08T14:17:50;18.70;99.90
3334;DHT22;1679;50.392;8.008;2023-08-08T14:20:15;18.50;99.90
3334;DHT22;1679;50.392;8.008;2023-08-08T14:22:44;18.40;99.90
3334;DHT22;1679;50.392;8.008;2023-08-08T14:25:10;18.30;99.90
3334;DHT22;1679;50.392;8.008;2023-08-08T14:27:36;18.40;99.90
3334;DHT22;1679;50.392;8.008;2023-08-08T14:30:03;18.30;99.90
3334;DHT22;1679;50.392;8.008;2023-08-08T14:32:29;18.20;99.90
3334;DHT22;1679;50.392;8.008;2023-08-08T14:34:55;18.20;99.90
3334;DHT22;1679;50.392;8.008;2023-08-08T14:37:20;18.10;99.90
3334;DHT22;1679;50.392;8.008;2023-08-08T14:39:47;18.10;99.90
3334;DHT22;1679;50.392;8.008;2023-08-08T14:42:12;18.00;99.90
3334;DHT22;1679;50.392;8.008;2023-08-08T14:44:38;17.90;99.90
3334;DHT22;1679;50.392;8.008;2023-08-08T14:47:03;17.90;99.90
3334;DHT22;1679;50.392;8.008;2023-08-08T14:49:29;18.00;99.90
3334;DHT22;1679;50.392;8.008;2023-08-08T14:51:54;18.10;99.90
3334;DHT22;1679;50.392;8.008;2023-08-08T14:54:20;18.20;99.90
3334;DHT22;1679;50.392;8.008;2023-08-08T14:56:45;18.20;99.90
3334;DHT22;1679;50.392;8.008;2023-08-08T14:59:11;18.40;99.90
3334;DHT22;1679;50.392;8.008;2023-08-08T15:01:36;18.40;99.90
3334;DHT22;1679;50.392;8.008;2023-08-08T15:04:02;18.40;99.90
3334;DHT22;1679;50.392;8.008;2023-08-08T15:06:28;18.40;99.90
3334;DHT22;1679;50.392;8.008;2023-08-08T15:08:53;18.40;99.90
3334;DHT22;1679;50.392;8.008;2023-08-08T15:11:19;18.40;99.90
3334;DHT22;1679;50.392;8.008;2023-08-08T15:13:44;18.60;99.90
3334;DHT22;1679;50.392;8.008;2023-08-08T15:16:10;19.00;99.90
3334;DHT22;1679;50.392;8.008;2023-08-08T15:18:36;19.30;99.90
3334;DHT22;1679;50.392;8.008;2023-08-08T15:21:01;19.60;99.90
3334;DHT22;1679;50.392;8.008;2023-08-08T15:23:27;19.70;99.90
3334;DHT22;1679;50.392;8.008;2023-08-08T15:25:53;19.60;99.90
3334;DHT22;1679;50.392;8.008;2023-08-08T15:28:20;19.50;99.90
3334;DHT22;1679;50.392;8.008;2023-08-08T15:30:46;19.20;99.90
3334;DHT22;1679;50.392;8.008;2023-08-08T15:33:12;19.30;99.90
3334;DHT22;1679;50.392;8.008;2023-08-08T15:35:37;19.30;99.90
3334;DHT22;1679;50.392;8.008;2023-08-08T15:38:03;19.50;99.90
3334;DHT22;1679;50.392;8.008;2023-08-08T15:40:29;19.60;99.90
3334;DHT22;1679;50.392;8.008;2023-08-08T15:42:55;19.50;99.90
3334;DHT22;1679;50.392;8.008;2023-08-08T15:45:20;19.30;99.90
3334;DHT22;1679;50.392;8.008;2023-08-08T15:47:46;19.30;99.90
3334;DHT22;1679;50.392;8.008;2023-08-08T15:50:12;19.20;99.90
3334;DHT22;1679;50.392;8.008;2023-08-08T15:52:37;19.20;99.90
3334;DHT22;1679;50.392;8.008;2023-08-08T15:55:03;19.20;99.90
3334;DHT22;1679;50.392;8.008;2023-08-08T15:57:30;19.30;99.90